sensor_id;sensor_type;location;lat;lon;timestamp;temperature;humidity
26224;DHT22;14820;48.682;8.890;2024-01-11T00:00:14;-5.10;99.90
26224;DHT22;14820;48.682;8.890;2024-01-11T00:02:39;-5.10;99.90
26224;DHT22;14820;48.682;8.890;2024-01-11T00:05:06;-5.10;99.90
26224;DHT22;14820;48.682;8.890;2024-01-11T00:07:32;-5.10;99.90
26224;DHT22;14820;48.682;8.890;2024-01-11T00:09:58;-5.10;99.90
26224;DHT22;14820;48.682;8.890;2024-01-11T00:12:23;-5.10;99.90
26224;DHT22;14820;48.682;8.890;2024-01-11T00:14:49;-5.10;99.90
26224;DHT22;14820;48.682;8.890;2024-01-11T00:17:14;-5.10;99.90
26224;DHT22;14820;48.682;8.890;2024-01-11T00:19:41;-5.10;99.90
26224;DHT22;14820;48.682;8.890;2024-01-11T00:22:07;-5.20;99.90
26224;DHT22;14820;48.682;8.890;2024-01-11T00:24:32;-5.20;99.90
26224;DHT22;14820;48.682;8.890;2024-01-11T00:26:58;-5.20;99.90
26224;DHT22;14820;48.682;8.890;2024-01-11T00:29:23;-5.20;99.90
26224;DHT22;14820;48.682;8.890;2024-01-11T00:31:49;-5.30;99.90
26224;DHT22;14820;48.682;8.890;2024-01-11T00:34:15;-5.20;99.90
26224;DHT22;14820;48.682;8.890;2024-01-11T00:36:40;-5.20;99.90
26224;DHT22;14820;48.682;8.890;2024-01-11T00:39:06;-5.20;99.90
26224;DHT22;14820;48.682;8.890;2024-01-11T00:41:32;-5.20;99.90
26224;DHT22;14820;48.682;8.890;2024-01-11T00:43:57;-5.20;99.90
26224;DHT22;14820;48.682;8.890;2024-01-11T00:46:23;-5.20;99.90
26224;DHT22;14820;48.682;8.890;2024-01-11T00:48:49;-5.20;99.90
26224;DHT22;14820;48.682;8.890;2024-01-11T00:51:15;-5.20;99.90
26224;DHT22;14820;48.682;8.890;2024-01-11T00:53:41;-5.20;99.90
26224;DHT22;14820;48.682;8.890;2024-01-11T00:56:18;-5.30;99.90
26224;DHT22;14820;48.682;8.890;2024-01-11T00:58:44;-5.20;99.90
26224;DHT22;14820;48.682;8.890;2024-01-11T01:01:10;-5.30;99.90
26224;DHT22;14820;48.682;8.890;2024-01-11T01:03:36;-5.30;99.90
26224;DHT22;14820;48.682;8.890;2024-01-11T01:06:02;-5.30;99.90
26224;DHT22;14820;48.682;8.890;2024-01-11T01:08:28;-5.30;99.90
26224;DHT22;14820;48.682;8.890;2024-01-11T01:10:54;-5.30;99.90
26224;DHT22;14820;48.682;8.890;2024-01-11T01:13:19;-5.30;99.90
26224;DHT22;14820;48.682;8.890;2024-01-11T01:15:45;-5.40;99.90
26224;DHT22;14820;48.682;8.890;2024-01-11T01:18:11;-5.30;99.90
26224;DHT22;14820;48.682;8.890;2024-01-11T01:20:37;-5.40;99.90
26224;DHT22;14820;48.682;8.890;2024-01-11T01:23:03;-5.40;99.90
26224;DHT22;14820;48.682;8.890;2024-01-11T01:25:29;-5.40;99.90
26224;DHT22;14820;48.682;8.890;2024-01-11T01:27:57;-5.40;99.90
26224;DHT22;14820;48.682;8.890;2024-01-11T01:30:24;-5.40;99.90
26224;DHT22;14820;48.682;8.890;2024-01-11T01:32:50;-5.40;99.90
26224;DHT22;14820;48.682;8.890;2024-01-11T01:35:16;-5.40;99.90
26224;DHT22;14820;48.682;8.890;2024-01-11T01:37:41;-5.50;99.90
26224;DHT22;14820;48.682;8.890;2024-01-11T01:40:08;-5.50;99.90
26224;DHT22;14820;48.682;8.890;2024-01-11T01:42:34;-5.60;99.90
26224;DHT22;14820;48.682;8.890;2024-01-11T01:45:00;-5.60;99.90
26224;DHT22;14820;48.682;8.890;2024-01-11T01:47:29;-5.60;99.90
26224;DHT22;14820;48.682;8.890;2024-01-11T01:49:55;-5.60;99.90
26224;DHT22;14820;48.682;8.890;2024-01-11T01:52:21;-5.60;99.90
26224;DHT22;14820;48.682;8.890;2024-01-11T01:54:48;-5.60;99.90
26224;DHT22;14820;48.682;8.890;2024-01-11T01:57:15;-5.60;99.90
26224;DHT22;14820;48.682;8.890;2024-01-11T01:59:42;-5.60;99.90
26224;DHT22;14820;48.682;8.890;2024-01-11T02:02:09;-5.60;99.90
26224;DHT22;14820;48.682;8.890;2024-01-11T02:04:36;-5.70;99.90
26224;DHT22;14820;48.682;8.890;2024-01-11T02:07:02;-5.70;99.90
26224;DHT22;14820;48.682;8.890;2024-01-11T02:09:30;-5.70;99.90
26224;DHT22;14820;48.682;8.890;2024-01-11T02:11:56;-5.60;99.90
26224;DHT22;14820;48.682;8.890;2024-01-11T02:14:22;-5.60;99.90
26224;DHT22;14820;48.682;8.890;2024-01-11T02:16:47;-5.60;99.90
26224;DHT22;14820;48.682;8.890;2024-01-11T02:19:13;-5.60;99.90
26224;DHT22;14820;48.682;8.890;2024-01-11T02:21:43;-5.60;99.90
26224;DHT22;14820;48.682;8.890;2024-01-11T02:24:09;-5.60;99.90
26224;DHT22;14820;48.682;8.890;2024-01-11T02:26:35;-5.60;99.90
26224;DHT22;14820;48.682;8.890;2024-01-11T02:29:01;-5.70;99.90
26224;DHT22;14820;48.682;8.890;2024-01-11T02:31:27;-5.60;99.90
26224;DHT22;14820;48.682;8.890;2024-01-11T02:33:54;-5.60;99.90
26224;DHT22;14820;48.682;8.890;2024-01-11T02:36:21;-5.60;99.90
26224;DHT22;14820;48.682;8.890;2024-01-11T02:38:47;-5.60;99.90
26224;DHT22;14820;48.682;8.890;2024-01-11T02:41:16;-5.60;99.90
26224;DHT22;14820;48.682;8.890;2024-01-11T02:43:47;-5.70;99.90
26224;DHT22;14820;48.682;8.890;2024-01-11T02:46:17;-5.70;99.90
26224;DHT22;14820;48.682;8.890;2024-01-11T02:48:42;-5.70;99.90
26224;DHT22;14820;48.682;8.890;2024-01-11T02:51:08;-5.70;99.90
26224;DHT22;14820;48.682;8.890;2024-01-11T02:53:34;-5.70;99.90
26224;DHT22;14820;48.682;8.890;2024-01-11T02:56:01;-5.70;99.90
26224;DHT22;14820;48.682;8.890;2024-01-11T02:58:26;-5.70;99.90
26224;DHT22;14820;48.682;8.890;2024-01-11T03:00:52;-5.70;99.90
26224;DHT22;14820;48.682;8.890;2024-01-11T03:03:18;-5.70;99.90
26224;DHT22;14820;48.682;8.890;2024-01-11T03:05:43;-5.70;99.90
26224;DHT22;14820;48.682;8.890;2024-01-11T03:08:09;-5.70;99.90
26224;DHT22;14820;48.682;8.890;2024-01-11T03:10:37;-5.80;99.90
26224;DHT22;14820;48.682;8.890;2024-01-11T03:13:05;-5.80;99.90
26224;DHT22;14820;48.682;8.890;2024-01-11T03:15:33;-5.80;99.90
26224;DHT22;14820;48.682;8.890;2024-01-11T03:17:58;-5.90;99.90
26224;DHT22;14820;48.682;8.890;2024-01-11T03:20:24;-5.90;99.90
26224;DHT22;14820;48.682;8.890;2024-01-11T03:22:53;-5.90;99.90
26224;DHT22;14820;48.682;8.890;2024-01-11T03:25:19;-5.90;99.90
26224;DHT22;14820;48.682;8.890;2024-01-11T03:27:45;-5.90;99.90
26224;DHT22;14820;48.682;8.890;2024-01-11T03:30:11;-5.90;99.90
26224;DHT22;14820;48.682;8.890;2024-01-11T03:32:37;-6.00;99.90
26224;DHT22;14820;48.682;8.890;2024-01-11T03:35:07;-6.00;99.90
26224;DHT22;14820;48.682;8.890;2024-01-11T03:37:33;-6.00;99.90
26224;DHT22;14820;48.682;8.890;2024-01-11T03:40:00;-6.00;99.90
26224;DHT22;14820;48.682;8.890;2024-01-11T03:42:25;-6.00;99.90
26224;DHT22;14820;48.682;8.890;2024-01-11T03:44:51;-6.00;99.90
26224;DHT22;14820;48.682;8.890;2024-01-11T03:47:17;-6.00;99.90
26224;DHT22;14820;48.682;8.890;2024-01-11T03:49:42;-6.00;99.90
26224;DHT22;14820;48.682;8.890;2024-01-11T03:52:08;-6.00;99.90
26224;DHT22;14820;48.682;8.890;2024-01-11T03:54:33;-6.00;99.90
26224;DHT22;14820;48.682;8.890;2024-01-11T03:56:59;-6.10;99.90
26224;DHT22;14820;48.682;8.890;2024-01-11T03:59:25;-6.00;99.90
26224;DHT22;14820;48.682;8.890;2024-01-11T04:01:51;-6.00;99.90
26224;DHT22;14820;48.682;8.890;2024-01-11T04:04:18;-6.00;99.90
26224;DHT22;14820;48.682;8.890;2024-01-11T04:06:43;-6.00;99.90
26224;DHT22;14820;48.682;8.890;2024-01-11T04:09:10;-6.00;99.90
26224;DHT22;14820;48.682;8.890;2024-01-11T04:11:36;-6.00;99.90
26224;DHT22;14820;48.682;8.890;2024-01-11T04:14:01;-6.00;99.90
26224;DHT22;14820;48.682;8.890;2024-01-11T04:16:27;-6.00;99.90
26224;DHT22;14820;48.682;8.890;2024-01-11T04:18:52;-6.00;99.90
26224;DHT22;14820;48.682;8.890;2024-01-11T04:21:26;-6.00;99.90
26224;DHT22;14820;48.682;8.890;2024-01-11T04:23:55;-6.10;99.90
26224;DHT22;14820;48.682;8.890;2024-01-11T04:26:21;-6.10;99.90
26224;DHT22;14820;48.682;8.890;2024-01-11T04:28:47;-6.10;99.90
26224;DHT22;14820;48.682;8.890;2024-01-11T04:31:14;-6.10;99.90
26224;DHT22;14820;48.682;8.890;2024-01-11T04:33:40;-6.10;99.90
26224;DHT22;14820;48.682;8.890;2024-01-11T04:36:08;-6.10;99.90
26224;DHT22;14820;48.682;8.890;2024-01-11T04:38:34;-6.10;99.90
26224;DHT22;14820;48.682;8.890;2024-01-11T04:40:59;-6.10;99.90
26224;DHT22;14820;48.682;8.890;2024-01-11T04:43:25;-6.10;99.90
26224;DHT22;14820;48.682;8.890;2024-01-11T04:45:51;-6.20;99.90
26224;DHT22;14820;48.682;8.890;2024-01-11T04:48:17;-6.20;99.90
26224;DHT22;14820;48.682;8.890;2024-01-11T04:50:44;-6.20;99.90
26224;DHT22;14820;48.682;8.890;2024-01-11T04:53:10;-6.20;99.90
26224;DHT22;14820;48.682;8.890;2024-01-11T04:55:35;-6.20;99.90
26224;DHT22;14820;48.682;8.890;2024-01-11T04:58:01;-6.30;99.90
26224;DHT22;14820;48.682;8.890;2024-01-11T05:00:27;-6.30;99.90
26224;DHT22;14820;48.682;8.890;2024-01-11T05:02:52;-6.20;99.90
26224;DHT22;14820;48.682;8.890;2024-01-11T05:05:18;-6.30;99.90
26224;DHT22;14820;48.682;8.890;2024-01-11T05:07:43;-6.30;99.90
26224;DHT22;14820;48.682;8.890;2024-01-11T05:10:09;-6.30;99.90
26224;DHT22;14820;48.682;8.890;2024-01-11T05:12:35;-6.30;99.90
26224;DHT22;14820;48.682;8.890;2024-01-11T05:15:02;-6.30;99.90
26224;DHT22;14820;48.682;8.890;2024-01-11T05:17:28;-6.30;99.90
26224;DHT22;14820;48.682;8.890;2024-01-11T05:19:54;-6.30;99.90
26224;DHT22;14820;48.682;8.890;2024-01-11T05:22:19;-6.30;99.90
26224;DHT22;14820;48.682;8.890;2024-01-11T05:24:45;-6.30;99.90
26224;DHT22;14820;48.682;8.890;2024-01-11T05:27:10;-6.40;99.90
26224;DHT22;14820;48.682;8.890;2024-01-11T05:29:36;-6.40;99.90
26224;DHT22;14820;48.682;8.890;2024-01-11T05:32:02;-6.50;99.90
26224;DHT22;14820;48.682;8.890;2024-01-11T05:34:27;-6.50;99.90
26224;DHT22;14820;48.682;8.890;2024-01-11T05:36:53;-6.50;99.90
26224;DHT22;14820;48.682;8.890;2024-01-11T05:39:19;-6.40;99.90
26224;DHT22;14820;48.682;8.890;2024-01-11T05:41:44;-6.40;99.90
26224;DHT22;14820;48.682;8.890;2024-01-11T05:44:10;-6.40;99.90
26224;DHT22;14820;48.682;8.890;2024-01-11T05:46:36;-6.40;99.90
26224;DHT22;14820;48.682;8.890;2024-01-11T05:49:02;-6.40;99.90
26224;DHT22;14820;48.682;8.890;2024-01-11T05:51:28;-6.40;99.90
26224;DHT22;14820;48.682;8.890;2024-01-11T05:53:53;-6.30;99.90
26224;DHT22;14820;48.682;8.890;2024-01-11T05:56:19;-6.30;99.90
26224;DHT22;14820;48.682;8.890;2024-01-11T05:58:47;-6.30;99.90
26224;DHT22;14820;48.682;8.890;2024-01-11T06:01:13;-6.40;99.90
26224;DHT22;14820;48.682;8.890;2024-01-11T06:03:39;-6.40;99.90
26224;DHT22;14820;48.682;8.890;2024-01-11T06:06:05;-6.40;99.90
26224;DHT22;14820;48.682;8.890;2024-01-11T06:08:31;-6.40;99.90
26224;DHT22;14820;48.682;8.890;2024-01-11T06:10:57;-6.30;99.90
26224;DHT22;14820;48.682;8.890;2024-01-11T06:13:23;-6.30;99.90
26224;DHT22;14820;48.682;8.890;2024-01-11T06:15:49;-6.40;99.90
26224;DHT22;14820;48.682;8.890;2024-01-11T06:18:15;-6.40;99.90
26224;DHT22;14820;48.682;8.890;2024-01-11T06:20:41;-6.40;99.90
26224;DHT22;14820;48.682;8.890;2024-01-11T06:23:07;-6.40;99.90
26224;DHT22;14820;48.682;8.890;2024-01-11T06:25:33;-6.40;99.90
26224;DHT22;14820;48.682;8.890;2024-01-11T06:27:59;-6.40;99.90
26224;DHT22;14820;48.682;8.890;2024-01-11T06:30:25;-6.40;99.90
26224;DHT22;14820;48.682;8.890;2024-01-11T06:32:51;-6.40;99.90
26224;DHT22;14820;48.682;8.890;2024-01-11T06:35:16;-6.40;99.90
26224;DHT22;14820;48.682;8.890;2024-01-11T06:37:42;-6.40;99.90
26224;DHT22;14820;48.682;8.890;2024-01-11T06:40:08;-6.40;99.90
26224;DHT22;14820;48.682;8.890;2024-01-11T06:42:34;-6.40;99.90
26224;DHT22;14820;48.682;8.890;2024-01-11T06:45:00;-6.40;99.90
26224;DHT22;14820;48.682;8.890;2024-01-11T06:47:26;-6.40;99.90
26224;DHT22;14820;48.682;8.890;2024-01-11T06:49:53;-6.40;99.90
26224;DHT22;14820;48.682;8.890;2024-01-11T06:52:18;-6.40;99.90
26224;DHT22;14820;48.682;8.890;2024-01-11T06:54:45;-6.40;99.90
26224;DHT22;14820;48.682;8.890;2024-01-11T06:57:11;-6.40;99.90
26224;DHT22;14820;48.682;8.890;2024-01-11T06:59:36;-6.30;99.90
26224;DHT22;14820;48.682;8.890;2024-01-11T07:02:03;-6.30;99.90
26224;DHT22;14820;48.682;8.890;2024-01-11T07:04:29;-6.40;99.90
26224;DHT22;14820;48.682;8.890;2024-01-11T07:06:54;-6.40;99.90
26224;DHT22;14820;48.682;8.890;2024-01-11T07:09:20;-6.50;99.90
26224;DHT22;14820;48.682;8.890;2024-01-11T07:11:46;-6.50;99.90
26224;DHT22;14820;48.682;8.890;2024-01-11T07:14:11;-6.50;99.90
26224;DHT22;14820;48.682;8.890;2024-01-11T07:16:37;-6.40;99.90
26224;DHT22;14820;48.682;8.890;2024-01-11T07:19:03;-6.50;99.90
26224;DHT22;14820;48.682;8.890;2024-01-11T07:21:28;-6.50;99.90
26224;DHT22;14820;48.682;8.890;2024-01-11T07:23:58;-6.50;99.90
26224;DHT22;14820;48.682;8.890;2024-01-11T07:26:25;-6.60;99.90
26224;DHT22;14820;48.682;8.890;2024-01-11T07:28:51;-6.60;99.90
26224;DHT22;14820;48.682;8.890;2024-01-11T07:31:16;-6.50;99.90
26224;DHT22;14820;48.682;8.890;2024-01-11T07:33:43;-6.50;99.90
26224;DHT22;14820;48.682;8.890;2024-01-11T07:36:08;-6.50;99.90
26224;DHT22;14820;48.682;8.890;2024-01-11T07:38:34;-6.50;99.90
26224;DHT22;14820;48.682;8.890;2024-01-11T07:41:00;-6.50;99.90
26224;DHT22;14820;48.682;8.890;2024-01-11T07:43:27;-6.50;99.90
26224;DHT22;14820;48.682;8.890;2024-01-11T07:45:54;-6.50;99.90
26224;DHT22;14820;48.682;8.890;2024-01-11T07:48:22;-6.50;99.90
26224;DHT22;14820;48.682;8.890;2024-01-11T07:50:48;-6.50;99.90
26224;DHT22;14820;48.682;8.890;2024-01-11T07:53:14;-6.40;99.90
26224;DHT22;14820;48.682;8.890;2024-01-11T07:55:40;-6.40;99.90
26224;DHT22;14820;48.682;8.890;2024-01-11T07:58:06;-6.40;99.90
26224;DHT22;14820;48.682;8.890;2024-01-11T08:00:32;-6.30;99.90
26224;DHT22;14820;48.682;8.890;2024-01-11T08:02:58;-6.30;99.90
26224;DHT22;14820;48.682;8.890;2024-01-11T08:05:23;-6.40;99.90
26224;DHT22;14820;48.682;8.890;2024-01-11T08:07:50;-6.40;99.90
26224;DHT22;14820;48.682;8.890;2024-01-11T08:10:16;-6.30;99.90
26224;DHT22;14820;48.682;8.890;2024-01-11T08:12:42;-6.30;99.90
26224;DHT22;14820;48.682;8.890;2024-01-11T08:15:07;-6.20;99.90
26224;DHT22;14820;48.682;8.890;2024-01-11T08:17:38;-6.20;99.90
26224;DHT22;14820;48.682;8.890;2024-01-11T08:20:04;-6.20;99.90
26224;DHT22;14820;48.682;8.890;2024-01-11T08:22:33;-6.30;99.90
26224;DHT22;14820;48.682;8.890;2024-01-11T08:25:02;-6.20;99.90
26224;DHT22;14820;48.682;8.890;2024-01-11T08:27:31;-6.20;99.90
26224;DHT22;14820;48.682;8.890;2024-01-11T08:29:57;-6.10;99.90
26224;DHT22;14820;48.682;8.890;2024-01-11T08:32:22;-6.00;99.90
26224;DHT22;14820;48.682;8.890;2024-01-11T08:34:48;-6.00;99.90
26224;DHT22;14820;48.682;8.890;2024-01-11T08:37:14;-5.90;99.90
26224;DHT22;14820;48.682;8.890;2024-01-11T08:39:40;-5.80;99.90
26224;DHT22;14820;48.682;8.890;2024-01-11T08:42:05;-5.80;99.90
26224;DHT22;14820;48.682;8.890;2024-01-11T08:44:31;-5.70;99.90
26224;DHT22;14820;48.682;8.890;2024-01-11T08:46:57;-5.70;99.90
26224;DHT22;14820;48.682;8.890;2024-01-11T08:49:25;-5.70;99.90
26224;DHT22;14820;48.682;8.890;2024-01-11T08:51:51;-5.50;99.90
26224;DHT22;14820;48.682;8.890;2024-01-11T08:54:16;-5.50;99.90
26224;DHT22;14820;48.682;8.890;2024-01-11T08:56:42;-5.40;99.90
26224;DHT22;14820;48.682;8.890;2024-01-11T08:59:08;-5.40;99.90
26224;DHT22;14820;48.682;8.890;2024-01-11T09:01:35;-5.40;99.90
26224;DHT22;14820;48.682;8.890;2024-01-11T09:04:01;-5.40;99.90
26224;DHT22;14820;48.682;8.890;2024-01-11T09:06:27;-5.40;99.90
26224;DHT22;14820;48.682;8.890;2024-01-11T09:08:53;-5.30;99.90
26224;DHT22;14820;48.682;8.890;2024-01-11T09:11:19;-5.20;99.90
26224;DHT22;14820;48.682;8.890;2024-01-11T09:13:44;-5.20;99.90
26224;DHT22;14820;48.682;8.890;2024-01-11T09:16:16;-5.10;99.90
26224;DHT22;14820;48.682;8.890;2024-01-11T09:18:43;-5.00;99.90
26224;DHT22;14820;48.682;8.890;2024-01-11T09:21:09;-4.90;99.90
26224;DHT22;14820;48.682;8.890;2024-01-11T09:23:36;-4.80;99.90
26224;DHT22;14820;48.682;8.890;2024-01-11T09:26:01;-4.80;99.90
26224;DHT22;14820;48.682;8.890;2024-01-11T09:28:27;-4.70;99.90
26224;DHT22;14820;48.682;8.890;2024-01-11T09:30:53;-4.70;99.90
26224;DHT22;14820;48.682;8.890;2024-01-11T09:33:19;-4.60;99.90
26224;DHT22;14820;48.682;8.890;2024-01-11T09:35:45;-4.50;99.90
26224;DHT22;14820;48.682;8.890;2024-01-11T09:38:10;-4.40;99.90
26224;DHT22;14820;48.682;8.890;2024-01-11T09:40:36;-4.40;99.90
26224;DHT22;14820;48.682;8.890;2024-01-11T09:43:03;-4.30;99.90
26224;DHT22;14820;48.682;8.890;2024-01-11T09:45:30;-4.20;99.90
26224;DHT22;14820;48.682;8.890;2024-01-11T09:47:55;-4.10;99.90
26224;DHT22;14820;48.682;8.890;2024-01-11T09:50:22;-4.00;99.90
26224;DHT22;14820;48.682;8.890;2024-01-11T09:52:50;-3.90;99.90
26224;DHT22;14820;48.682;8.890;2024-01-11T09:55:17;-3.80;99.90
26224;DHT22;14820;48.682;8.890;2024-01-11T09:57:47;-3.80;99.90
26224;DHT22;14820;48.682;8.890;2024-01-11T10:00:16;-3.70;99.90
26224;DHT22;14820;48.682;8.890;2024-01-11T10:02:44;-3.60;99.90
26224;DHT22;14820;48.682;8.890;2024-01-11T10:05:11;-3.50;99.90
26224;DHT22;14820;48.682;8.890;2024-01-11T10:07:39;-3.50;99.90
26224;DHT22;14820;48.682;8.890;2024-01-11T10:10:06;-3.40;99.90
26224;DHT22;14820;48.682;8.890;2024-01-11T10:12:35;-3.20;99.90
26224;DHT22;14820;48.682;8.890;2024-01-11T10:15:10;-3.10;99.90
26224;DHT22;14820;48.682;8.890;2024-01-11T10:17:40;-3.00;99.90
26224;DHT22;14820;48.682;8.890;2024-01-11T10:20:07;-2.80;99.90
26224;DHT22;14820;48.682;8.890;2024-01-11T10:22:36;-2.70;99.90
26224;DHT22;14820;48.682;8.890;2024-01-11T10:25:15;-2.60;99.90
26224;DHT22;14820;48.682;8.890;2024-01-11T10:27:41;-2.50;99.90
26224;DHT22;14820;48.682;8.890;2024-01-11T10:30:08;-2.40;99.90
26224;DHT22;14820;48.682;8.890;2024-01-11T10:32:34;-2.30;99.90
26224;DHT22;14820;48.682;8.890;2024-01-11T10:35:01;-2.20;99.90
26224;DHT22;14820;48.682;8.890;2024-01-11T10:37:31;-2.00;99.90
26224;DHT22;14820;48.682;8.890;2024-01-11T10:39:58;-1.90;99.90
26224;DHT22;14820;48.682;8.890;2024-01-11T10:42:27;-1.80;99.90
26224;DHT22;14820;48.682;8.890;2024-01-11T10:44:55;-1.70;99.90
26224;DHT22;14820;48.682;8.890;2024-01-11T10:47:24;-1.60;99.90
26224;DHT22;14820;48.682;8.890;2024-01-11T10:49:56;-1.50;99.90
26224;DHT22;14820;48.682;8.890;2024-01-11T10:52:25;-1.40;99.90
26224;DHT22;14820;48.682;8.890;2024-01-11T10:54:53;-1.30;99.90
26224;DHT22;14820;48.682;8.890;2024-01-11T10:57:19;-1.30;99.90
26224;DHT22;14820;48.682;8.890;2024-01-11T10:59:47;-1.10;99.90
26224;DHT22;14820;48.682;8.890;2024-01-11T11:02:14;-1.00;99.90
26224;DHT22;14820;48.682;8.890;2024-01-11T11:04:42;-0.90;99.90
26224;DHT22;14820;48.682;8.890;2024-01-11T11:07:08;-0.80;99.90
26224;DHT22;14820;48.682;8.890;2024-01-11T11:09:35;-0.60;99.90
26224;DHT22;14820;48.682;8.890;2024-01-11T11:12:03;-0.60;99.90
26224;DHT22;14820;48.682;8.890;2024-01-11T11:14:30;-0.40;99.90
26224;DHT22;14820;48.682;8.890;2024-01-11T11:16:58;-0.30;99.90
26224;DHT22;14820;48.682;8.890;2024-01-11T11:19:24;-0.20;99.90
26224;DHT22;14820;48.682;8.890;2024-01-11T11:21:50;-0.10;99.90
26224;DHT22;14820;48.682;8.890;2024-01-11T11:24:16;0.10;99.90
26224;DHT22;14820;48.682;8.890;2024-01-11T11:26:42;0.10;99.90
26224;DHT22;14820;48.682;8.890;2024-01-11T11:29:08;0.20;99.90
26224;DHT22;14820;48.682;8.890;2024-01-11T11:31:38;0.40;99.90
26224;DHT22;14820;48.682;8.890;2024-01-11T11:34:06;0.40;99.90
26224;DHT22;14820;48.682;8.890;2024-01-11T11:36:36;0.50;99.90
26224;DHT22;14820;48.682;8.890;2024-01-11T11:39:02;0.50;99.90
26224;DHT22;14820;48.682;8.890;2024-01-11T11:41:30;0.60;99.90
26224;DHT22;14820;48.682;8.890;2024-01-11T11:44:03;0.60;99.90
26224;DHT22;14820;48.682;8.890;2024-01-11T11:46:29;0.70;99.90
26224;DHT22;14820;48.682;8.890;2024-01-11T11:48:57;0.70;99.90
26224;DHT22;14820;48.682;8.890;2024-01-11T11:51:23;0.90;99.90
26224;DHT22;14820;48.682;8.890;2024-01-11T11:53:51;0.90;99.90
26224;DHT22;14820;48.682;8.890;2024-01-11T11:56:18;0.90;99.90
26224;DHT22;14820;48.682;8.890;2024-01-11T11:58:45;1.00;99.90
26224;DHT22;14820;48.682;8.890;2024-01-11T12:01:13;1.10;99.90
26224;DHT22;14820;48.682;8.890;2024-01-11T12:03:42;1.20;99.90
26224;DHT22;14820;48.682;8.890;2024-01-11T12:06:09;1.20;99.90
26224;DHT22;14820;48.682;8.890;2024-01-11T12:08:36;1.30;99.90
26224;DHT22;14820;48.682;8.890;2024-01-11T12:11:02;1.30;99.90
26224;DHT22;14820;48.682;8.890;2024-01-11T12:13:29;1.30;99.90
26224;DHT22;14820;48.682;8.890;2024-01-11T12:15:56;1.40;99.90
26224;DHT22;14820;48.682;8.890;2024-01-11T12:18:22;1.40;99.90
26224;DHT22;14820;48.682;8.890;2024-01-11T12:20:48;1.50;99.90
26224;DHT22;14820;48.682;8.890;2024-01-11T12:23:14;1.50;99.90
26224;DHT22;14820;48.682;8.890;2024-01-11T12:25:43;1.50;99.90
26224;DHT22;14820;48.682;8.890;2024-01-11T12:28:09;1.40;99.90
26224;DHT22;14820;48.682;8.890;2024-01-11T12:30:35;1.20;99.90
26224;DHT22;14820;48.682;8.890;2024-01-11T12:33:02;1.30;99.90
26224;DHT22;14820;48.682;8.890;2024-01-11T12:35:28;1.40;99.90
26224;DHT22;14820;48.682;8.890;2024-01-11T12:38:04;1.50;99.90
26224;DHT22;14820;48.682;8.890;2024-01-11T12:40:38;1.60;99.90
26224;DHT22;14820;48.682;8.890;2024-01-11T12:43:04;1.70;99.90
26224;DHT22;14820;48.682;8.890;2024-01-11T12:45:31;1.70;99.90
26224;DHT22;14820;48.682;8.890;2024-01-11T12:47:59;1.80;99.90
26224;DHT22;14820;48.682;8.890;2024-01-11T12:50:26;1.80;99.90
26224;DHT22;14820;48.682;8.890;2024-01-11T12:53:19;1.80;99.90
26224;DHT22;14820;48.682;8.890;2024-01-11T12:55:45;1.90;99.90
26224;DHT22;14820;48.682;8.890;2024-01-11T12:58:11;1.90;99.90
26224;DHT22;14820;48.682;8.890;2024-01-11T13:00:37;1.90;99.90
26224;DHT22;14820;48.682;8.890;2024-01-11T13:03:07;1.90;99.90
26224;DHT22;14820;48.682;8.890;2024-01-11T13:05:35;1.80;99.90
26224;DHT22;14820;48.682;8.890;2024-01-11T13:08:10;1.80;99.90
26224;DHT22;14820;48.682;8.890;2024-01-11T13:10:36;1.80;99.90
26224;DHT22;14820;48.682;8.890;2024-01-11T13:13:02;1.80;99.90
26224;DHT22;14820;48.682;8.890;2024-01-11T13:15:28;1.80;99.90
26224;DHT22;14820;48.682;8.890;2024-01-11T13:18:00;1.70;99.90
26224;DHT22;14820;48.682;8.890;2024-01-11T13:20:27;1.70;99.90
26224;DHT22;14820;48.682;8.890;2024-01-11T13:23:15;1.60;99.90
26224;DHT22;14820;48.682;8.890;2024-01-11T13:25:44;1.60;99.90
26224;DHT22;14820;48.682;8.890;2024-01-11T13:28:11;1.60;99.90
26224;DHT22;14820;48.682;8.890;2024-01-11T13:30:41;1.50;99.90
26224;DHT22;14820;48.682;8.890;2024-01-11T13:33:07;1.40;99.90
26224;DHT22;14820;48.682;8.890;2024-01-11T13:35:35;1.40;99.90
26224;DHT22;14820;48.682;8.890;2024-01-11T13:38:01;1.50;99.90
26224;DHT22;14820;48.682;8.890;2024-01-11T13:40:27;1.40;99.90
26224;DHT22;14820;48.682;8.890;2024-01-11T13:42:54;1.50;99.90
26224;DHT22;14820;48.682;8.890;2024-01-11T13:45:22;1.50;99.90
26224;DHT22;14820;48.682;8.890;2024-01-11T13:47:48;1.50;99.90
26224;DHT22;14820;48.682;8.890;2024-01-11T13:50:13;1.40;99.90
26224;DHT22;14820;48.682;8.890;2024-01-11T13:52:40;1.40;99.90
26224;DHT22;14820;48.682;8.890;2024-01-11T13:55:07;1.30;99.90
26224;DHT22;14820;48.682;8.890;2024-01-11T13:57:35;1.40;99.90
26224;DHT22;14820;48.682;8.890;2024-01-11T14:00:03;1.40;99.90
26224;DHT22;14820;48.682;8.890;2024-01-11T14:02:28;1.30;99.90
26224;DHT22;14820;48.682;8.890;2024-01-11T14:04:54;1.40;99.90
26224;DHT22;14820;48.682;8.890;2024-01-11T14:07:20;1.40;99.90
26224;DHT22;14820;48.682;8.890;2024-01-11T14:09:45;1.30;99.90
26224;DHT22;14820;48.682;8.890;2024-01-11T14:12:11;1.40;99.90
26224;DHT22;14820;48.682;8.890;2024-01-11T14:14:37;1.30;99.90
26224;DHT22;14820;48.682;8.890;2024-01-11T14:17:03;1.40;99.90
26224;DHT22;14820;48.682;8.890;2024-01-11T14:19:28;1.40;99.90
26224;DHT22;14820;48.682;8.890;2024-01-11T14:21:54;1.40;99.90
26224;DHT22;14820;48.682;8.890;2024-01-11T14:24:20;1.40;99.90
26224;DHT22;14820;48.682;8.890;2024-01-11T14:26:45;1.40;99.90
26224;DHT22;14820;48.682;8.890;2024-01-11T14:29:11;1.40;99.90
26224;DHT22;14820;48.682;8.890;2024-01-11T14:31:37;1.40;99.90
26224;DHT22;14820;48.682;8.890;2024-01-11T14:34:04;1.40;99.90
26224;DHT22;14820;48.682;8.890;2024-01-11T14:36:30;1.40;99.90
26224;DHT22;14820;48.682;8.890;2024-01-11T14:38:56;1.40;99.90
26224;DHT22;14820;48.682;8.890;2024-01-11T14:41:22;1.40;99.90
26224;DHT22;14820;48.682;8.890;2024-01-11T14:43:48;1.40;99.90
26224;DHT22;14820;48.682;8.890;2024-01-11T14:46:13;1.40;99.90
26224;DHT22;14820;48.682;8.890;2024-01-11T14:48:39;1.40;99.90
26224;DHT22;14820;48.682;8.890;2024-01-11T14:51:05;1.50;99.90
26224;DHT22;14820;48.682;8.890;2024-01-11T14:53:30;1.50;99.90
26224;DHT22;14820;48.682;8.890;2024-01-11T14:55:56;1.60;99.90
26224;DHT22;14820;48.682;8.890;2024-01-11T14:58:22;1.60;99.90
26224;DHT22;14820;48.682;8.890;2024-01-11T15:00:47;1.60;99.90
26224;DHT22;14820;48.682;8.890;2024-01-11T15:03:13;1.70;99.90
26224;DHT22;14820;48.682;8.890;2024-01-11T15:05:39;1.60;99.90
26224;DHT22;14820;48.682;8.890;2024-01-11T15:08:05;1.60;99.90
26224;DHT22;14820;48.682;8.890;2024-01-11T15:10:31;1.60;99.90
26224;DHT22;14820;48.682;8.890;2024-01-11T15:12:56;1.50;99.90
26224;DHT22;14820;48.682;8.890;2024-01-11T15:15:22;1.40;99.90
26224;DHT22;14820;48.682;8.890;2024-01-11T15:17:48;1.30;99.90
26224;DHT22;14820;48.682;8.890;2024-01-11T15:20:13;1.20;99.90
26224;DHT22;14820;48.682;8.890;2024-01-11T15:22:39;1.10;99.90
26224;DHT22;14820;48.682;8.890;2024-01-11T15:25:05;0.90;99.90
26224;DHT22;14820;48.682;8.890;2024-01-11T15:27:31;0.90;99.90
26224;DHT22;14820;48.682;8.890;2024-01-11T15:29:57;0.70;99.90